Terminal Aerodrome Forecast
Issued by NWS St Louis, MO

Home | Current Version | Previous Version | Text Only | Print | Product List | Glossary On
Versions: 1 2 3 4 5 6 7 8 9 10 11 12 13 14 15 16 17 18 19 20 21 22 23 24
000
FTUS43 KLSX 261700
TAFSTL
TAF
KSTL 261728Z 2618/2724 19012KT P6SM SCT025 BKN250
      TEMPO 2620/2624 BKN025
     FM270000 18010KT P6SM BKN025
     FM271500 27013KT 5SM -RA SCT009 OVC015
     FM272100 30010KT P6SM OVC025=

USA.gov is the U.S. government's official web portal to all federal, state and local government web resources and services.